KPNC

Ponca City Regional Airport

Ponca City, Oklahoma, USA
METAR KPNC 100553Z AUTO 00000KT 10SM CLR M06/M09 A3033 RMK AO2 SLP279 T10561089 10050 21056 400831089 56002
Observed Flight Rules
Dec-10 @ 05:53 UTC (34 minutes ago) Visual Flight Rules
Visibility Clouds
10 miles
  • Clear skies
Temperatures Readings
Current -6°C / 21°F
Dewpoint -9°C / 16°F
Humidity 80%
Altimeter 30.33" Hg
Pressure 1027.9 hPa
Elevation 308
METAR KPNC 100553Z AUTO 00000KT 10SM CLR M06/M09 A3033 RMK AO2 SLP279 T10561089 10050 21056 400831089 56002
Observed Flight Rules
Dec-10 @ 05:53 UTC
(34 minutes ago)
VFR
Clouds
  • Clear skies
Temperature Dewpoint
-6°C / 21°F -9°C / 16°F
Humidity Altimeter Pressure
80% 30.33" Hg 1027.9 hPa